createdAt,value
2023-03-23T15:58:32.223Z,27.89
2023-03-23T16:01:06.459Z,27.76
2023-03-23T16:03:40.870Z,27.64
2023-03-23T16:06:13.573Z,27.56
2023-03-23T16:08:54.660Z,27.47
2023-03-23T16:11:25.550Z,27.38
2023-03-23T16:13:54.682Z,27.30
2023-03-23T16:16:28.672Z,27.20
2023-03-23T16:18:57.402Z,27.11
2023-03-23T16:21:26.226Z,27.00
2023-03-23T16:23:54.691Z,26.92
2023-03-23T16:26:23.327Z,26.83
2023-03-23T16:28:57.366Z,26.73
2023-03-23T16:31:33.049Z,26.62
2023-03-23T16:34:01.525Z,26.53
2023-03-23T16:36:29.951Z,26.43
2023-03-23T16:38:58.447Z,26.34
2023-03-23T16:41:27.073Z,26.23
2023-03-23T16:43:55.669Z,26.12
2023-03-23T16:46:24.919Z,26.02
2023-03-23T16:48:55.374Z,25.91
2023-03-23T16:51:24.047Z,25.82
2023-03-23T16:53:52.689Z,25.72
2023-03-23T16:56:21.180Z,25.61
2023-03-23T16:58:49.623Z,25.54
2023-03-23T17:01:18.252Z,25.45
2023-03-23T17:03:47.067Z,25.37
2023-03-23T17:06:17.001Z,25.29
2023-03-23T17:08:45.446Z,25.20
2023-03-23T17:11:14.019Z,25.11
2023-03-23T17:13:42.822Z,25.02
2023-03-23T17:16:11.585Z,24.95
2023-03-23T17:18:40.038Z,24.87
2023-03-23T17:21:09.151Z,24.78
2023-03-23T17:23:39.155Z,24.71
2023-03-23T17:26:08.522Z,24.64
2023-03-23T17:28:37.357Z,24.58
2023-03-23T17:31:06.634Z,24.50
2023-03-23T17:33:35.533Z,24.43
2023-03-23T17:36:04.318Z,24.37
2023-03-23T17:38:32.804Z,24.32
2023-03-23T17:41:06.405Z,24.26
2023-03-23T17:43:36.673Z,24.22
2023-03-23T17:46:06.040Z,24.16
2023-03-23T17:48:36.223Z,24.10
2023-03-23T17:51:06.963Z,24.04
2023-03-23T17:53:37.754Z,23.99
2023-03-23T17:56:13.182Z,23.90
2023-03-23T17:58:42.222Z,23.84
2023-03-23T18:01:12.833Z,23.78
2023-03-23T18:03:42.946Z,23.71
2023-03-23T18:06:13.784Z,23.66
2023-03-23T18:08:43.296Z,23.60
2023-03-23T18:11:14.248Z,23.53
2023-03-23T18:13:44.528Z,23.47
2023-03-23T18:16:15.462Z,23.42
2023-03-23T18:18:47.636Z,23.37
2023-03-23T18:21:18.578Z,23.34
2023-03-23T18:23:56.873Z,23.29
2023-03-23T18:26:31.561Z,23.24
2023-03-23T18:29:02.169Z,23.19
2023-03-23T18:31:35.222Z,23.16
2023-03-23T18:34:06.141Z,23.13
2023-03-23T18:36:36.696Z,23.09
2023-03-23T18:39:07.433Z,23.05
2023-03-23T18:41:39.256Z,23.01
2023-03-23T18:44:08.239Z,22.97
2023-03-23T18:46:38.434Z,22.95
2023-03-23T18:49:11.002Z,22.92
2023-03-23T18:51:40.731Z,22.90
2023-03-23T18:54:11.238Z,22.87
2023-03-23T18:56:49.151Z,22.83
2023-03-23T18:59:19.405Z,22.81
2023-03-23T19:01:50.355Z,22.77
2023-03-23T19:04:22.865Z,22.73
2023-03-23T19:06:56.048Z,22.66
2023-03-23T19:09:26.813Z,22.61
2023-03-23T19:11:59.749Z,22.55
2023-03-23T19:14:29.895Z,22.50
2023-03-23T19:17:01.084Z,22.46
2023-03-23T19:19:32.389Z,22.43
2023-03-23T19:22:03.370Z,22.42
2023-03-23T19:24:35.915Z,22.42
2023-03-23T19:27:09.689Z,22.42
2023-03-23T19:29:39.869Z,22.43
2023-03-23T19:32:13.025Z,22.45
2023-03-23T19:37:16.340Z,22.42
2023-03-23T19:39:49.379Z,22.40
2023-03-23T19:42:24.265Z,22.38
2023-03-23T19:44:54.850Z,22.37
2023-03-23T19:47:27.750Z,22.36
2023-03-23T19:50:00.010Z,22.36
2023-03-23T19:52:30.717Z,22.38
2023-03-23T19:55:01.652Z,22.39
2023-03-23T19:57:33.547Z,22.40
2023-03-23T20:00:07.648Z,22.43
2023-03-23T20:02:40.327Z,22.45
2023-03-23T20:05:11.096Z,22.49
2023-03-23T20:07:42.834Z,22.52
2023-03-23T20:10:16.772Z,22.54
2023-03-23T20:12:49.988Z,22.56
2023-03-23T20:15:21.673Z,22.58
2023-03-23T20:17:51.764Z,22.58
2023-03-23T20:20:23.810Z,22.55
2023-03-23T20:22:57.823Z,22.53
2023-03-23T20:25:29.294Z,22.50
2023-03-23T20:28:01.937Z,22.46
2023-03-23T20:30:32.956Z,22.44
2023-03-23T20:33:03.421Z,22.42
2023-03-23T20:35:33.532Z,22.40
2023-03-23T20:38:04.357Z,22.40
2023-03-23T20:40:36.406Z,22.38
2023-03-23T20:43:08.992Z,22.38
2023-03-23T20:45:40.917Z,22.36
2023-03-23T20:48:10.553Z,22.36
2023-03-23T20:50:40.236Z,22.35
2023-03-23T20:53:09.351Z,22.35
2023-03-23T20:55:39.218Z,22.36
2023-03-23T20:58:10.806Z,22.36
2023-03-23T21:00:42.695Z,22.36
2023-03-23T21:03:13.480Z,22.38
2023-03-23T21:05:44.596Z,22.38
2023-03-23T21:08:14.902Z,22.42
2023-03-23T21:10:45.171Z,22.41
2023-03-23T21:13:17.167Z,22.39
2023-03-23T21:15:47.047Z,22.39
2023-03-23T21:18:16.635Z,22.38
2023-03-23T21:20:47.797Z,22.35
2023-03-23T21:23:17.076Z,22.35
2023-03-23T21:25:48.137Z,22.31
2023-03-23T21:28:19.522Z,22.30
2023-03-23T21:30:49.457Z,22.27
2023-03-23T21:33:17.977Z,22.26
2023-03-23T21:35:47.261Z,22.22
2023-03-23T21:38:19.837Z,22.18
2023-03-23T21:40:48.628Z,22.14
2023-03-23T21:43:18.510Z,22.09
2023-03-23T21:45:47.909Z,22.04
2023-03-23T21:48:16.495Z,22.00
2023-03-23T21:50:45.070Z,21.95
2023-03-23T21:53:18.118Z,21.91
2023-03-23T21:55:51.206Z,21.86
2023-03-23T21:58:23.092Z,21.81
2023-03-23T22:00:54.247Z,21.78
2023-03-23T22:03:23.818Z,21.75
2023-03-23T22:05:55.271Z,21.73
2023-03-23T22:08:25.689Z,21.69
2023-03-23T22:11:00.793Z,21.69
2023-03-23T22:13:33.868Z,21.65
2023-03-23T22:16:04.218Z,21.66
2023-03-23T22:18:33.361Z,21.66
2023-03-23T22:21:02.155Z,21.67
2023-03-23T22:23:30.568Z,21.66
2023-03-23T22:25:59.048Z,21.64
2023-03-23T22:28:31.120Z,21.61
2023-03-23T22:31:04.201Z,21.58
2023-03-23T22:33:33.912Z,21.56
2023-03-23T22:36:06.219Z,21.54
2023-03-23T22:38:35.638Z,21.51
2023-03-23T22:41:07.136Z,21.50
2023-03-23T22:43:37.732Z,21.47
2023-03-23T22:46:07.064Z,21.47
2023-03-23T22:48:35.866Z,21.46
2023-03-23T22:51:04.745Z,21.45
2023-03-23T22:53:33.203Z,21.45
2023-03-23T22:56:01.781Z,21.45
2023-03-23T22:58:30.349Z,21.43
2023-03-23T23:01:03.802Z,21.40
2023-03-23T23:03:32.898Z,21.41
2023-03-23T23:06:02.198Z,21.39
2023-03-23T23:08:33.049Z,21.37
2023-03-23T23:11:04.128Z,21.35
2023-03-23T23:13:33.814Z,21.33
2023-03-23T23:16:04.105Z,21.31
2023-03-23T23:18:33.315Z,21.30
2023-03-23T23:21:08.861Z,21.28
2023-03-23T23:23:38.025Z,21.27
2023-03-23T23:26:07.693Z,21.27
2023-03-23T23:28:36.311Z,21.26
2023-03-23T23:31:19.524Z,21.25
2023-03-23T23:33:47.984Z,21.22
2023-03-23T23:36:16.436Z,21.19
2023-03-23T23:38:44.940Z,21.17
2023-03-23T23:41:13.576Z,21.15
2023-03-23T23:43:42.002Z,21.14
2023-03-23T23:46:11.868Z,21.10
2023-03-23T23:48:40.690Z,21.10
2023-03-23T23:51:09.911Z,21.07
2023-03-23T23:53:38.925Z,21.03
2023-03-23T23:56:08.921Z,20.98
2023-03-23T23:58:37.415Z,20.95
